Time;durP1;ratioP1;P1;durP2;ratioP2;P2;SDS_P1;SDS_P2;PMS_P1;PMS_P2;Temp;Humidity;BMP_temperature;BMP_pressure;BME280_temperature;BME280_humidity;BME280_pressure;Samples;Min_cycle;Max_cycle;Signal;HPM_P1;HPM_P2
2023/04/05 00:00:09;;;;;;;;;;;;;;;15.20;53.66;100076.47;4996504;28;1061;-45
2023/04/05 00:02:39;;;;;;;;;;;;;;;16.01;52.66;100083.69;4996428;28;1131;-46
2023/04/05 00:05:05;;;;;;;;;;;;;;;17.26;49.70;100076.59;4996800;28;1181;-46
2023/04/05 00:07:33;;;;;;;;;;;;;;;16.47;51.32;100075.03;5027830;28;1977;-44
2023/04/05 00:09:59;;;;;;;;;;;;;;;15.89;52.65;100095.00;4996473;28;1117;-44
2023/04/05 00:12:24;;;;;;;;;;;;;;;15.58;53.17;100070.50;4996610;28;1123;-41
2023/04/05 00:14:50;;;;;;;;;;;;;;;15.39;53.21;100079.38;4996460;28;1060;-46
2023/04/05 00:17:16;;;;;;;;;;;;;;;15.26;53.38;100074.50;4996274;28;1068;-41
2023/04/05 00:19:43;;;;;;;;;;;;;;;16.50;51.26;100087.34;5027412;28;1049;-43
2023/04/05 00:22:09;;;;;;;;;;;;;;;17.05;49.57;100096.09;4995921;28;1127;-46
2023/04/05 00:24:38;;;;;;;;;;;;;;;16.04;52.20;100097.63;4998945;28;1068;-44
2023/04/05 00:27:04;;;;;;;;;;;;;;;15.66;53.01;100097.31;5000204;28;1056;-42
2023/04/05 00:29:30;;;;;;;;;;;;;;;15.46;53.09;100089.22;5000000;28;1916;-44
2023/04/05 00:31:55;;;;;;;;;;;;;;;15.28;53.12;100091.50;4997986;28;1563;-46
2023/04/05 00:34:21;;;;;;;;;;;;;;;16.53;51.39;100092.25;5000090;28;1092;-44
2023/04/05 00:36:47;;;;;;;;;;;;;;;17.35;48.81;100094.09;4999927;28;1157;-42
2023/04/05 00:39:12;;;;;;;;;;;;;;;16.28;51.43;100088.63;4999672;28;1032;-47
2023/04/05 00:41:39;;;;;;;;;;;;;;;15.80;52.42;100099.47;4999633;28;1036;-44
2023/04/05 00:44:05;;;;;;;;;;;;;;;15.58;52.94;100092.44;4999286;28;1154;-44
2023/04/05 00:46:33;;;;;;;;;;;;;;;15.38;52.91;100101.59;4999296;28;1062;-43
2023/04/05 00:48:58;;;;;;;;;;;;;;;16.53;51.22;100106.78;4999503;28;1998;-40
2023/04/05 00:51:24;;;;;;;;;;;;;;;16.90;49.93;100090.78;5031379;28;1068;-42
2023/04/05 00:53:51;;;;;;;;;;;;;;;16.00;52.08;100096.53;5030646;28;1049;-44
2023/04/05 00:56:17;;;;;;;;;;;;;;;15.63;52.60;100103.38;5030282;28;903;-45
2023/04/05 00:58:42;;;;;;;;;;;;;;;15.39;53.01;100092.28;5014070;28;1073;-42
2023/04/05 01:01:21;;;;;;;;;;;;;;;15.30;53.11;100110.41;4999581;28;1036;-42
2023/04/05 01:03:54;;;;;;;;;;;;;;;16.86;50.02;100097.97;4998669;28;1124;-46
2023/04/05 01:06:40;;;;;;;;;;;;;;;16.56;50.65;100105.41;4998041;28;1131;-46
2023/04/05 01:09:15;;;;;;;;;;;;;;;15.79;52.53;100103.28;4991276;28;1914;-45
2023/04/05 01:11:40;;;;;;;;;;;;;;;15.46;53.03;100105.66;5030450;28;1071;-45
2023/04/05 01:14:06;;;;;;;;;;;;;;;16.15;52.05;100111.25;5014185;28;1504;-40
2023/04/05 01:16:32;;;;;;;;;;;;;;;17.27;48.95;100109.28;4999311;28;1080;-47
2023/04/05 01:18:57;;;;;;;;;;;;;;;16.20;51.33;100103.81;4998804;28;1088;-44
2023/04/05 01:21:23;;;;;;;;;;;;;;;15.74;52.46;100106.88;4997850;28;1188;-44
2023/04/05 01:23:57;;;;;;;;;;;;;;;15.53;52.65;100106.19;4997308;28;1141;-47
2023/04/05 01:26:38;;;;;;;;;;;;;;;15.33;52.72;100109.81;4997688;28;1282;-45
2023/04/05 01:29:26;;;;;;;;;;;;;;;16.81;50.04;100117.22;4998709;28;1981;-44
2023/04/05 01:32:18;;;;;;;;;;;;;;;16.67;50.10;100112.41;5030289;28;993;-41
2023/04/05 01:34:49;;;;;;;;;;;;;;;15.86;51.84;100112.00;4970119;28;1534;-43
2023/04/05 01:37:15;;;;;;;;;;;;;;;15.59;52.47;100124.22;4997181;28;1068;-44
2023/04/05 01:39:40;;;;;;;;;;;;;;;15.39;52.73;100117.75;5013625;28;1525;-42
2023/04/05 01:42:06;;;;;;;;;;;;;;;15.21;52.72;100115.66;4997366;28;1140;-43
2023/04/05 01:44:31;;;;;;;;;;;;;;;16.42;50.98;100117.06;5021542;28;821;-48
2023/04/05 01:46:57;;;;;;;;;;;;;;;17.03;49.02;100125.78;4980122;28;1132;-44
2023/04/05 01:49:23;;;;;;;;;;;;;;;16.01;51.52;100130.28;4998172;28;1997;-45
2023/04/05 01:51:49;;;;;;;;;;;;;;;15.60;52.53;100127.75;4997071;28;1168;-47
2023/04/05 01:54:14;;;;;;;;;;;;;;;15.71;52.60;100132.09;4998166;28;1079;-45
2023/04/05 01:56:42;;;;;;;;;;;;;;;17.23;48.65;100124.72;4997537;28;1056;-46
2023/04/05 01:59:07;;;;;;;;;;;;;;;16.56;50.06;100135.59;4997191;28;1243;-45
2023/04/05 02:01:33;;;;;;;;;;;;;;;15.92;51.42;100132.78;4998119;28;1092;-45
2023/04/05 02:03:58;;;;;;;;;;;;;;;15.59;52.15;100124.22;4997958;28;1084;-47
2023/04/05 02:06:25;;;;;;;;;;;;;;;15.40;52.69;100127.59;4997506;28;1119;-47
2023/04/05 02:08:51;;;;;;;;;;;;;;;16.13;51.47;100140.88;4997511;28;1977;-46
2023/04/05 02:11:16;;;;;;;;;;;;;;;16.85;49.19;100124.59;4996351;28;1149;-47
2023/04/05 02:13:42;;;;;;;;;;;;;;;15.97;51.52;100134.72;4997845;28;1095;-47
2023/04/05 02:16:07;;;;;;;;;;;;;;;15.59;52.20;100126.97;5029362;28;1159;-44
2023/04/05 02:18:33;;;;;;;;;;;;;;;15.42;52.53;100134.72;4998074;28;1157;-43
2023/04/05 02:21:06;;;;;;;;;;;;;;;16.45;50.61;100125.81;4996117;28;1136;-47
2023/04/05 02:23:32;;;;;;;;;;;;;;;16.92;48.88;100135.25;4997912;28;1096;-43
2023/04/05 02:25:58;;;;;;;;;;;;;;;16.00;51.33;100131.38;4997434;28;1119;-43
2023/04/05 02:28:23;;;;;;;;;;;;;;;15.65;52.08;100145.00;4996184;28;2373;-42
2023/04/05 02:30:52;;;;;;;;;;;;;;;15.46;52.46;100144.00;4997793;28;1260;-46
2023/04/05 02:33:18;;;;;;;;;;;;;;;15.76;51.75;100147.69;4996155;28;1617;-41
2023/04/05 02:35:43;;;;;;;;;;;;;;;17.18;48.55;100126.72;4997697;28;1264;-43
2023/04/05 02:38:09;;;;;;;;;;;;;;;16.37;50.36;100146.47;4997525;28;1146;-44
2023/04/05 02:40:35;;;;;;;;;;;;;;;15.81;51.49;100145.78;4997683;28;1145;-44
2023/04/05 02:43:01;;;;;;;;;;;;;;;15.52;52.02;100137.41;4996352;28;1124;-43
2023/04/05 02:45:26;;;;;;;;;;;;;;;15.37;52.30;100146.50;4995795;28;1299;-45
2023/04/05 02:47:54;;;;;;;;;;;;;;;15.68;52.20;100141.72;4996008;28;1965;-46
2023/04/05 02:50:22;;;;;;;;;;;;;;;17.16;48.26;100139.94;4996155;28;1123;-44
2023/04/05 02:52:48;;;;;;;;;;;;;;;16.37;50.08;100136.31;5012089;28;1204;-44
2023/04/05 02:55:14;;;;;;;;;;;;;;;15.81;51.38;100123.00;5028900;28;1156;-45
2023/04/05 02:57:42;;;;;;;;;;;;;;;15.52;51.97;100131.94;4996801;28;1181;-43
2023/04/05 03:00:21;;;;;;;;;;;;;;;15.97;51.19;100130.03;4995713;28;1381;-40
2023/04/05 03:02:47;;;;;;;;;;;;;;;17.22;48.12;100136.00;4996077;28;1837;-46
2023/04/05 03:05:17;;;;;;;;;;;;;;;16.21;50.59;100138.34;4997195;28;1101;-46
2023/04/05 03:07:49;;;;;;;;;;;;;;;15.72;51.59;100134.56;5027906;28;1938;-45
2023/04/05 03:10:17;;;;;;;;;;;;;;;15.48;52.06;100133.59;4995155;28;1284;-45
2023/04/05 03:12:50;;;;;;;;;;;;;;;15.80;51.74;100143.31;4995510;28;1647;-42
2023/04/05 03:15:21;;;;;;;;;;;;;;;17.19;47.97;100142.91;4996012;28;1484;-47
2023/04/05 03:17:46;;;;;;;;;;;;;;;16.25;50.37;100158.63;4995535;28;1067;-47
2023/04/05 03:20:12;;;;;;;;;;;;;;;15.72;51.53;100156.50;4995545;28;1096;-50
2023/04/05 03:22:38;;;;;;;;;;;;;;;15.56;51.96;100166.69;5011845;28;1245;-48
2023/04/05 03:25:05;;;;;;;;;;;;;;;15.31;52.17;100156.69;4995557;28;1300;-47
2023/04/05 03:27:33;;;;;;;;;;;;;;;16.07;50.80;100164.78;4995315;28;1984;-46
2023/04/05 03:30:09;;;;;;;;;;;;;;;17.31;47.82;100174.66;4995791;28;1190;-46
2023/04/05 03:32:40;;;;;;;;;;;;;;;16.21;50.29;100170.44;4995437;28;1333;-50
2023/04/05 03:35:22;;;;;;;;;;;;;;;15.74;51.60;100176.22;4995620;28;2032;-45
2023/04/05 03:37:49;;;;;;;;;;;;;;;15.44;52.07;100181.84;5012009;28;1140;-43
2023/04/05 03:40:15;;;;;;;;;;;;;;;15.35;52.00;100176.94;4979143;28;1499;-47
2023/04/05 03:42:40;;;;;;;;;;;;;;;15.55;51.87;100181.50;4996591;28;1322;-48
2023/04/05 03:45:06;;;;;;;;;;;;;;;17.05;48.50;100183.19;4994331;28;1528;-51
2023/04/05 03:47:32;;;;;;;;;;;;;;;16.44;49.79;100193.59;4984599;28;1911;-43
2023/04/05 03:50:01;;;;;;;;;;;;;;;15.79;51.25;100188.25;5014286;28;1349;-49
2023/04/05 03:52:27;;;;;;;;;;;;;;;15.52;51.98;100182.06;4995498;28;1108;-49
2023/04/05 03:54:52;;;;;;;;;;;;;;;15.23;52.55;100187.38;4988114;28;1236;-57
2023/04/05 03:57:21;;;;;;;;;;;;;;;15.78;51.44;100189.34;4995023;28;1127;-54
2023/04/05 03:59:49;;;;;;;;;;;;;;;17.17;48.06;100185.53;4998852;28;1141;-52
2023/04/05 04:02:15;;;;;;;;;;;;;;;16.45;49.62;100203.47;5000516;28;1554;-50
2023/04/05 04:04:41;;;;;;;;;;;;;;;15.80;51.29;100198.16;5000499;28;1199;-49
2023/04/05 04:07:06;;;;;;;;;;;;;;;15.55;51.59;100206.16;4995913;28;1152;-50
2023/04/05 04:09:32;;;;;;;;;;;;;;;15.33;51.86;100217.50;5006838;28;1989;-51
2023/04/05 04:12:05;;;;;;;;;;;;;;;15.50;51.78;100214.41;4998890;28;1223;-51
2023/04/05 04:14:35;;;;;;;;;;;;;;;16.99;48.20;100209.88;5031528;28;1297;-50
2023/04/05 04:17:29;;;;;;;;;;;;;;;15.96;50.84;100221.63;5000040;28;1163;-46
2023/04/05 04:20:14;;;;;;;;;;;;;;;15.51;51.85;100217.97;5000053;28;1006;-53
2023/04/05 04:23:09;;;;;;;;;;;;;;;15.29;52.06;100221.88;4997634;28;1104;-49
2023/04/05 04:25:53;;;;;;;;;;;;;;;16.76;48.96;100239.72;4999712;28;1101;-50
2023/04/05 04:28:45;;;;;;;;;;;;;;;16.49;49.41;100228.41;4986321;28;1905;-53
2023/04/05 04:31:37;;;;;;;;;;;;;;;15.77;50.88;100237.03;4998744;28;1166;-51
2023/04/05 04:34:13;;;;;;;;;;;;;;;15.49;51.53;100233.88;5027659;28;1242;-50
2023/04/05 04:36:41;;;;;;;;;;;;;;;15.29;51.98;100241.06;4990477;28;1057;-51
2023/04/05 04:39:33;;;;;;;;;;;;;;;16.70;48.94;100242.78;5020771;28;1065;-50
2023/04/05 04:42:24;;;;;;;;;;;;;;;16.80;48.59;100247.38;4997113;28;1563;-53
2023/04/05 04:45:25;;;;;;;;;;;;;;;15.93;50.69;100246.06;4957789;29;1170;-48
2023/04/05 04:48:12;;;;;;;;;;;;;;;15.57;51.59;100238.75;4989250;28;1914;-53
2023/04/05 04:50:48;;;;;;;;;;;;;;;15.43;51.55;100256.91;4998004;28;1294;-53
2023/04/05 04:53:16;;;;;;;;;;;;;;;16.93;48.28;100238.53;4999956;28;1056;-53
2023/04/05 04:55:42;;;;;;;;;;;;;;;16.39;49.48;100249.31;4999538;28;1109;-54
2023/04/05 04:58:11;;;;;;;;;;;;;;;15.76;50.86;100249.13;4998881;28;1056;-55
2023/04/05 05:00:38;;;;;;;;;;;;;;;15.50;51.68;100251.94;5018605;28;1136;-52
2023/04/05 05:03:07;;;;;;;;;;;;;;;16.45;49.50;100241.06;4998000;28;1240;-55
2023/04/05 05:05:32;;;;;;;;;;;;;;;17.22;47.32;100244.00;4999649;28;1143;-54
2023/04/05 05:07:58;;;;;;;;;;;;;;;16.25;49.93;100253.81;4999477;28;1910;-54
2023/04/05 05:10:23;;;;;;;;;;;;;;;16.68;49.38;100248.56;4997905;28;907;-54
2023/04/05 05:12:50;;;;;;;;;;;;;;;15.97;50.04;100241.66;5016015;28;1286;-52
2023/04/05 05:15:16;;;;;;;;;;;;;;;15.66;49.33;100237.09;4987199;28;1419;-48
2023/04/05 05:17:41;;;;;;;;;;;;;;;16.07;50.31;100245.16;4999119;28;1172;-52
2023/04/05 05:20:09;;;;;;;;;;;;;;;15.69;50.07;100232.97;4998879;28;1068;-53
2023/04/05 05:22:35;;;;;;;;;;;;;;;17.51;48.03;100245.06;4998462;28;1000;-52
2023/04/05 05:25:01;;;;;;;;;;;;;;;16.33;49.55;100233.22;4998997;28;1199;-59
2023/04/05 05:27:27;;;;;;;;;;;;;;;16.40;50.38;100237.25;4998593;28;1991;-60
2023/04/05 05:29:52;;;;;;;;;;;;;;;17.00;48.89;100255.47;4998640;28;1099;-48
2023/04/05 05:32:18;;;;;;;;;;;;;;;16.13;49.55;100245.13;4998486;28;1099;-52
2023/04/05 05:34:44;;;;;;;;;;;;;;;15.81;48.54;100249.94;4998444;28;878;-53
2023/04/05 05:37:12;;;;;;;;;;;;;;;15.71;48.20;100267.22;4998619;28;1041;-52
2023/04/05 05:39:38;;;;;;;;;;;;;;;16.79;49.24;100243.00;4998535;28;1160;-53
2023/04/05 05:42:03;;;;;;;;;;;;;;;16.02;49.47;100247.94;4998252;28;1076;-48
2023/04/05 05:44:29;;;;;;;;;;;;;;;16.28;49.37;100253.25;4998608;28;1111;-47
2023/04/05 05:46:55;;;;;;;;;;;;;;;16.66;49.25;100248.06;4998120;28;1204;-53
2023/04/05 05:49:22;;;;;;;;;;;;;;;15.94;49.10;100248.50;4998182;28;1906;-54
2023/04/05 05:51:48;;;;;;;;;;;;;;;16.86;49.26;100252.53;4998275;28;1115;-49
2023/04/05 05:54:13;;;;;;;;;;;;;;;16.12;49.81;100251.69;4998660;28;1088;-51
2023/04/05 05:56:39;;;;;;;;;;;;;;;16.00;49.21;100254.78;4998287;28;1072;-52
2023/04/05 05:59:05;;;;;;;;;;;;;;;16.70;49.13;100257.31;4998103;28;1022;-56
2023/04/05 06:01:33;;;;;;;;;;;;;;;16.14;49.47;100257.72;4998003;28;1171;-56
2023/04/05 06:03:59;;;;;;;;;;;;;;;17.92;47.38;100261.06;4984662;28;1188;-53
2023/04/05 06:06:25;;;;;;;;;;;;;;;16.76;49.24;100267.19;4997985;28;1498;-52
2023/04/05 06:08:51;;;;;;;;;;;;;;;16.28;48.46;100260.66;4997638;28;1955;-52
2023/04/05 06:11:17;;;;;;;;;;;;;;;16.72;49.53;100268.06;4997766;28;919;-49
2023/04/05 06:13:43;;;;;;;;;;;;;;;16.54;49.26;100250.34;4997853;28;1049;-54
2023/04/05 06:16:08;;;;;;;;;;;;;;;16.13;48.82;100262.41;4997908;28;1139;-52
2023/04/05 06:18:34;;;;;;;;;;;;;;;15.99;47.57;100266.84;4997644;28;1095;-51
2023/04/05 06:21:00;;;;;;;;;;;;;;;16.81;48.72;100271.81;4997508;28;1056;-55
2023/04/05 06:23:25;;;;;;;;;;;;;;;17.02;48.93;100266.97;4997687;28;893;-55
2023/04/05 06:25:51;;;;;;;;;;;;;;;18.37;46.42;100272.56;4997622;28;1144;-53
2023/04/05 06:28:17;;;;;;;;;;;;;;;17.31;48.73;100273.59;4997658;28;1902;-54
2023/04/05 06:30:42;;;;;;;;;;;;;;;16.62;48.72;100279.94;4997647;28;1131;-51
2023/04/05 06:33:08;;;;;;;;;;;;;;;16.30;48.24;100292.22;4997879;28;1052;-55
2023/04/05 06:35:33;;;;;;;;;;;;;;;16.08;47.49;100276.94;4997375;28;1017;-52
2023/04/05 06:37:59;;;;;;;;;;;;;;;16.05;47.38;100285.75;4997089;28;1079;-54
2023/04/05 06:40:25;;;;;;;;;;;;;;;16.67;48.90;100299.09;4997529;28;1089;-54
2023/04/05 06:42:50;;;;;;;;;;;;;;;16.13;48.80;100294.47;4997285;28;1092;-54
2023/04/05 06:45:21;;;;;;;;;;;;;;;16.38;49.01;100308.06;4996206;28;1335;-54
2023/04/05 06:47:47;;;;;;;;;;;;;;;16.49;48.96;100311.56;4997107;28;1899;-54
2023/04/05 06:50:13;;;;;;;;;;;;;;;17.32;48.53;100311.78;4997335;28;1004;-58
2023/04/05 06:52:38;;;;;;;;;;;;;;;18.38;46.79;100320.16;4997244;28;1085;-52
2023/04/05 06:55:04;;;;;;;;;;;;;;;16.90;49.11;100315.97;4997460;28;1052;-48
2023/04/05 06:57:29;;;;;;;;;;;;;;;16.39;48.62;100314.38;4997369;28;985;-52
2023/04/05 06:59:55;;;;;;;;;;;;;;;16.27;47.79;100322.97;4997082;28;1518;-55
2023/04/05 07:02:21;;;;;;;;;;;;;;;17.24;48.69;100321.44;4996902;28;1060;-51
2023/04/05 07:04:47;;;;;;;;;;;;;;;16.45;49.15;100320.66;4988393;28;1145;-49
2023/04/05 07:07:12;;;;;;;;;;;;;;;16.56;49.18;100319.47;4983684;28;1303;-47
2023/04/05 07:09:38;;;;;;;;;;;;;;;16.87;49.12;100324.75;4984077;28;1997;-53
2023/04/05 07:12:04;;;;;;;;;;;;;;;16.36;48.67;100321.25;4996863;28;1139;-47
2023/04/05 07:14:30;;;;;;;;;;;;;;;16.55;48.65;100329.66;4996796;28;1144;-52
2023/04/05 07:16:56;;;;;;;;;;;;;;;16.61;49.48;100333.19;4997715;28;1160;-52
2023/04/05 07:19:21;;;;;;;;;;;;;;;16.25;48.60;100330.63;4996750;28;1168;-49
2023/04/05 07:21:47;;;;;;;;;;;;;;;16.01;47.72;100334.03;4997232;28;1104;-45
2023/04/05 07:24:13;;;;;;;;;;;;;;;16.49;48.12;100335.44;4997067;28;1147;-54
2023/04/05 07:26:38;;;;;;;;;;;;;;;16.47;48.90;100338.47;4997046;28;1052;-48
2023/04/05 07:29:05;;;;;;;;;;;;;;;15.98;48.65;100339.28;4997011;28;1966;-53
2023/04/05 07:31:30;;;;;;;;;;;;;;;16.85;48.76;100340.72;4996850;28;1093;-54
2023/04/05 07:33:57;;;;;;;;;;;;;;;16.67;48.94;100340.25;4998415;28;1051;-50
2023/04/05 07:36:22;;;;;;;;;;;;;;;16.18;48.24;100336.44;5000626;28;890;-54
2023/04/05 07:38:48;;;;;;;;;;;;;;;17.69;47.52;100329.53;5001066;28;1091;-53
2023/04/05 07:41:16;;;;;;;;;;;;;;;16.89;48.80;100334.38;5000545;28;1064;-49
2023/04/05 07:43:41;;;;;;;;;;;;;;;16.40;48.64;100333.31;5000478;28;1200;-52
2023/04/05 07:46:07;;;;;;;;;;;;;;;17.17;48.51;100339.41;5000079;28;1036;-47
2023/04/05 07:48:32;;;;;;;;;;;;;;;16.42;48.90;100341.25;5000640;28;1980;-51
2023/04/05 07:51:07;;;;;;;;;;;;;;;16.80;49.07;100340.75;5000686;28;1009;-52
2023/04/05 07:53:33;;;;;;;;;;;;;;;16.66;49.30;100340.56;5000483;28;1287;-52
2023/04/05 07:56:02;;;;;;;;;;;;;;;16.21;48.35;100335.03;5000347;28;1117;-53
2023/04/05 07:58:29;;;;;;;;;;;;;;;16.05;47.73;100337.06;5000011;28;1067;-53
2023/04/05 08:00:59;;;;;;;;;;;;;;;17.12;48.31;100342.16;5000509;28;1060;-52
2023/04/05 08:03:25;;;;;;;;;;;;;;;16.26;48.96;100348.75;5000508;28;1120;-52
2023/04/05 08:05:50;;;;;;;;;;;;;;;16.57;49.04;100349.38;5000472;28;1099;-48
2023/04/05 08:08:16;;;;;;;;;;;;;;;16.82;48.45;100350.34;4999972;28;1906;-49
2023/04/05 08:10:41;;;;;;;;;;;;;;;16.19;48.49;100348.25;4999896;28;882;-48
2023/04/05 08:13:07;;;;;;;;;;;;;;;16.97;48.58;100349.44;4999909;28;1068;-50
2023/04/05 08:15:33;;;;;;;;;;;;;;;16.22;49.08;100353.16;4999878;28;1001;-50
2023/04/05 08:17:58;;;;;;;;;;;;;;;15.98;48.34;100351.06;4993031;28;1136;-49
2023/04/05 08:20:24;;;;;;;;;;;;;;;16.64;48.53;100351.81;5000198;28;1128;-48
2023/04/05 08:22:50;;;;;;;;;;;;;;;16.46;48.61;100357.97;5000238;28;1061;-52
2023/04/05 08:25:15;;;;;;;;;;;;;;;16.14;48.06;100351.81;4999738;28;1084;-51
2023/04/05 08:27:41;;;;;;;;;;;;;;;16.46;48.60;100352.50;4999119;28;1979;-49
2023/04/05 08:30:07;;;;;;;;;;;;;;;16.42;48.88;100358.56;5000026;28;1156;-51
2023/04/05 08:32:33;;;;;;;;;;;;;;;16.09;48.49;100357.34;4999442;28;1128;-46
2023/04/05 08:34:58;;;;;;;;;;;;;;;16.89;48.41;100367.34;5000002;28;1168;-47
2023/04/05 08:37:24;;;;;;;;;;;;;;;16.22;48.40;100367.69;4998720;28;1180;-48
2023/04/05 08:39:49;;;;;;;;;;;;;;;17.60;47.31;100369.78;4999903;28;1148;-48
2023/04/05 08:42:22;;;;;;;;;;;;;;;17.48;47.75;100367.41;4999604;28;1100;-45
2023/04/05 08:44:49;;;;;;;;;;;;;;;16.57;48.86;100365.84;4999288;28;1152;-49
2023/04/05 08:47:17;;;;;;;;;;;;;;;16.31;48.07;100367.91;4999152;28;1056;-49
2023/04/05 08:49:43;;;;;;;;;;;;;;;16.67;48.52;100375.16;4999081;28;1971;-48
2023/04/05 08:52:08;;;;;;;;;;;;;;;16.59;49.01;100368.31;4999394;28;1056;-48
2023/04/05 08:54:34;;;;;;;;;;;;;;;16.34;48.26;100366.53;4999461;28;1108;-49
2023/04/05 08:57:00;;;;;;;;;;;;;;;16.46;48.37;100369.75;4999342;28;1144;-49
2023/04/05 08:59:26;;;;;;;;;;;;;;;16.74;48.83;100376.47;4998800;28;1128;-48
2023/04/05 09:01:51;;;;;;;;;;;;;;;16.30;48.15;100371.78;5031036;28;1068;-47
2023/04/05 09:04:17;;;;;;;;;;;;;;;17.73;47.18;100376.50;5030886;28;1044;-46
2023/04/05 09:06:43;;;;;;;;;;;;;;;16.58;48.73;100383.97;4998264;28;1212;-47
2023/04/05 09:09:08;;;;;;;;;;;;;;;16.23;48.25;100380.31;4998950;28;1906;-47
2023/04/05 09:11:34;;;;;;;;;;;;;;;16.10;47.33;100378.16;4997510;28;1251;-48
2023/04/05 09:14:04;;;;;;;;;;;;;;;16.16;47.69;100370.72;4997963;28;1144;-47
2023/04/05 09:16:30;;;;;;;;;;;;;;;16.56;48.44;100374.38;4999562;28;1029;-48
2023/04/05 09:18:55;;;;;;;;;;;;;;;16.18;48.04;100374.03;5019074;28;1076;-45
2023/04/05 09:21:22;;;;;;;;;;;;;;;15.96;47.37;100391.63;4983788;28;1120;-46
2023/04/05 09:23:52;;;;;;;;;;;;;;;16.63;47.86;100391.34;4998311;28;1020;-47
2023/04/05 09:26:24;;;;;;;;;;;;;;;16.05;48.00;100397.38;4998613;28;1163;-48
2023/04/05 09:28:57;;;;;;;;;;;;;;;17.23;47.48;100387.69;4997614;28;1918;-47
2023/04/05 09:31:32;;;;;;;;;;;;;;;16.47;48.27;100400.78;4998692;28;1047;-47
2023/04/05 09:33:59;;;;;;;;;;;;;;;16.03;48.01;100389.44;4998213;28;1411;-48
2023/04/05 09:36:25;;;;;;;;;;;;;;;15.85;47.72;100382.63;4998573;28;893;-48
2023/04/05 09:38:51;;;;;;;;;;;;;;;17.12;47.56;100389.69;4998288;28;1088;-49
2023/04/05 09:41:16;;;;;;;;;;;;;;;16.22;48.32;100381.41;4998406;28;1148;-45
2023/04/05 09:43:42;;;;;;;;;;;;;;;15.98;47.77;100380.41;4998286;28;1211;-48
2023/04/05 09:46:26;;;;;;;;;;;;;;;17.36;47.14;100383.44;4998030;28;1243;-50
2023/04/05 09:48:51;;;;;;;;;;;;;;;16.19;48.37;100381.97;4998030;28;1969;-47
2023/04/05 09:51:17;;;;;;;;;;;;;;;16.37;48.67;100383.25;4998167;28;1160;-46
2023/04/05 09:53:58;;;;;;;;;;;;;;;16.52;48.39;100385.13;4997921;28;1000;-47
2023/04/05 09:56:24;;;;;;;;;;;;;;;16.10;47.72;100393.78;4997912;28;1148;-45
2023/04/05 09:58:50;;;;;;;;;;;;;;;15.92;47.32;100387.81;5016828;28;1044;-47
2023/04/05 10:01:16;;;;;;;;;;;;;;;16.79;47.82;100388.50;5029565;28;989;-49
2023/04/05 10:03:47;;;;;;;;;;;;;;;16.24;48.62;100389.34;4997931;28;1060;-51
2023/04/05 10:06:14;;;;;;;;;;;;;;;16.66;48.08;100389.97;4998069;28;1072;-48
2023/04/05 10:08:40;;;;;;;;;;;;;;;17.31;47.21;100389.00;5029403;28;1976;-50
2023/04/05 10:11:05;;;;;;;;;;;;;;;16.31;48.37;100384.38;4997548;28;1084;-46
2023/04/05 10:13:31;;;;;;;;;;;;;;;16.65;48.60;100391.91;4996846;28;1232;-45
2023/04/05 10:15:57;;;;;;;;;;;;;;;16.55;48.17;100386.44;4997979;28;1115;-49
2023/04/05 10:18:24;;;;;;;;;;;;;;;17.16;47.92;100403.69;4997842;28;1041;-49
2023/04/05 10:20:50;;;;;;;;;;;;;;;17.99;46.43;100388.06;4997880;28;1152;-50
2023/04/05 10:23:23;;;;;;;;;;;;;;;16.74;48.56;100400.34;4997468;28;1180;-50
2023/04/05 10:25:52;;;;;;;;;;;;;;;16.46;48.19;100396.41;4997500;28;1064;-48
2023/04/05 10:28:18;;;;;;;;;;;;;;;16.17;47.39;100395.16;5029246;28;1984;-49
2023/04/05 10:30:45;;;;;;;;;;;;;;;16.82;48.24;100405.25;4997394;28;1132;-50
2023/04/05 10:33:13;;;;;;;;;;;;;;;16.37;48.04;100405.22;4997605;28;1220;-46
2023/04/05 10:35:55;;;;;;;;;;;;;;;17.09;48.00;100412.25;4997327;28;1154;-49
2023/04/05 10:38:27;;;;;;;;;;;;;;;16.55;48.32;100413.91;4997340;28;1069;-46
2023/04/05 10:41:09;;;;;;;;;;;;;;;16.19;47.78;100417.63;4997064;28;1156;-50
2023/04/05 10:43:34;;;;;;;;;;;;;;;17.03;47.54;100421.63;4997519;28;1052;-46
2023/04/05 10:46:00;;;;;;;;;;;;;;;16.23;48.43;100420.66;5029014;28;1273;-48
2023/04/05 10:48:34;;;;;;;;;;;;;;;16.10;48.51;100423.97;4997114;28;1973;-46
2023/04/05 10:51:00;;;;;;;;;;;;;;;16.73;47.82;100434.41;4997470;28;1071;-48
2023/04/05 10:53:26;;;;;;;;;;;;;;;16.66;48.31;100429.25;5028787;28;1119;-44
2023/04/05 10:55:52;;;;;;;;;;;;;;;18.33;45.98;100439.44;4997345;28;1060;-44
2023/04/05 10:58:17;;;;;;;;;;;;;;;16.95;48.40;100436.78;4996924;28;1052;-43
2023/04/05 11:00:43;;;;;;;;;;;;;;;16.56;47.85;100435.59;5019997;28;914;-45
2023/04/05 11:03:08;;;;;;;;;;;;;;;17.59;47.70;100439.59;4990888;28;1177;-50
2023/04/05 11:05:34;;;;;;;;;;;;;;;17.15;48.31;100430.31;4997353;28;1032;-42
2023/04/05 11:08:07;;;;;;;;;;;;;;;18.26;46.69;100430.72;4995676;28;1967;-46
2023/04/05 11:10:36;;;;;;;;;;;;;;;18.86;45.36;100432.13;4997109;28;1277;-45
2023/04/05 11:13:02;;;;;;;;;;;;;;;17.40;47.90;100432.06;4996431;28;1172;-44
2023/04/05 11:15:31;;;;;;;;;;;;;;;16.89;48.11;100433.25;4996900;28;1032;-42
2023/04/05 11:18:03;;;;;;;;;;;;;;;16.82;46.94;100437.41;4997026;28;1164;-45
2023/04/05 11:20:41;;;;;;;;;;;;;;;17.30;48.29;100436.81;4994134;28;991;-49
2023/04/05 11:23:07;;;;;;;;;;;;;;;16.96;48.31;100438.44;4996061;28;1124;-48
2023/04/05 11:25:36;;;;;;;;;;;;;;;16.66;47.42;100429.25;4996797;28;957;-48
2023/04/05 11:28:01;;;;;;;;;;;;;;;16.39;47.22;100430.44;5021126;28;1971;-47
2023/04/05 11:30:45;;;;;;;;;;;;;;;16.98;47.66;100435.41;4977204;28;1196;-46
2023/04/05 11:33:10;;;;;;;;;;;;;;;16.91;48.11;100430.22;4985571;28;1041;-46
2023/04/05 11:35:38;;;;;;;;;;;;;;;16.70;48.56;100435.78;4996645;28;1088;-48
2023/04/05 11:38:03;;;;;;;;;;;;;;;18.04;46.88;100428.47;4996406;28;1055;-48
2023/04/05 11:40:30;;;;;;;;;;;;;;;16.95;47.92;100442.28;4996806;28;1251;-47
2023/04/05 11:43:04;;;;;;;;;;;;;;;17.47;48.36;100437.22;4996753;28;1033;-46
2023/04/05 11:45:31;;;;;;;;;;;;;;;17.22;47.95;100432.75;4996276;28;1229;-44
2023/04/05 11:47:57;;;;;;;;;;;;;;;18.35;46.75;100441.88;4996220;28;1899;-44
2023/04/05 11:50:23;;;;;;;;;;;;;;;19.02;45.45;100439.09;4981309;28;1014;-50
2023/04/05 11:53:08;;;;;;;;;;;;;;;17.59;47.67;100436.88;4979482;28;1133;-46
2023/04/05 11:55:34;;;;;;;;;;;;;;;18.76;46.45;100442.19;4977059;28;1330;-46
2023/04/05 11:58:00;;;;;;;;;;;;;;;17.97;47.56;100437.06;4985855;28;1152;-49
2023/04/05 12:00:26;;;;;;;;;;;;;;;17.34;47.56;100440.66;4996240;28;1112;-47
2023/04/05 12:02:54;;;;;;;;;;;;;;;17.04;47.18;100435.09;4996711;28;1092;-44
2023/04/05 12:05:20;;;;;;;;;;;;;;;16.89;46.55;100426.94;4996458;28;1040;-47
2023/04/05 12:07:45;;;;;;;;;;;;;;;17.17;47.14;100424.56;5016692;28;1903;-46
2023/04/05 12:10:14;;;;;;;;;;;;;;;17.40;47.78;100426.59;4993493;28;1228;-50
2023/04/05 12:12:43;;;;;;;;;;;;;;;16.95;47.46;100420.31;4996820;28;1148;-46
2023/04/05 12:15:10;;;;;;;;;;;;;;;16.96;47.67;100426.59;4991586;28;1145;-45
2023/04/05 12:17:39;;;;;;;;;;;;;;;17.55;47.81;100427.56;4977069;28;1013;-45
2023/04/05 12:20:05;;;;;;;;;;;;;;;16.94;47.68;100429.63;4997627;28;1108;-49
2023/04/05 12:22:31;;;;;;;;;;;;;;;16.85;47.44;100423.09;5000263;28;1100;-44
2023/04/05 12:24:56;;;;;;;;;;;;;;;17.63;47.63;100426.94;4999687;28;1092;-51
2023/04/05 12:27:22;;;;;;;;;;;;;;;16.80;47.84;100417.63;4999815;28;1171;-47
2023/04/05 12:30:06;;;;;;;;;;;;;;;17.93;47.45;100423.06;5030941;28;1918;-49
2023/04/05 12:32:35;;;;;;;;;;;;;;;17.16;47.92;100417.41;4999851;28;1097;-48
2023/04/05 12:35:04;;;;;;;;;;;;;;;17.60;48.20;100414.56;4999757;28;1044;-49
2023/04/05 12:37:32;;;;;;;;;;;;;;;17.93;47.51;100419.50;4999210;28;1060;-45
2023/04/05 12:40:01;;;;;;;;;;;;;;;17.11;47.97;100407.28;4999631;28;1206;-49
2023/04/05 12:42:30;;;;;;;;;;;;;;;16.92;47.18;100415.38;5031208;28;1057;-44
2023/04/05 12:45:02;;;;;;;;;;;;;;;17.23;47.42;100415.16;4999058;28;1234;-49
2023/04/05 12:47:28;;;;;;;;;;;;;;;17.35;47.84;100410.13;4999443;28;1048;-48
2023/04/05 12:49:54;;;;;;;;;;;;;;;16.82;48.11;100415.44;5030645;28;2001;-44
2023/04/05 12:52:22;;;;;;;;;;;;;;;18.52;46.50;100408.34;4999058;28;1095;-42